createdAt,value
2023-03-26T00:01:17.312Z,2.97
2023-03-26T00:03:53.498Z,2.92
2023-03-26T00:06:29.026Z,2.78
2023-03-26T00:08:57.556Z,3.10
2023-03-26T00:11:27.851Z,2.72
2023-03-26T00:13:57.726Z,2.58
2023-03-26T00:16:28.229Z,2.55
2023-03-26T00:18:55.741Z,2.60
2023-03-26T00:21:27.724Z,2.97
2023-03-26T00:23:56.266Z,2.58
2023-03-26T00:26:24.020Z,3.47
2023-03-26T00:28:50.997Z,2.90
2023-03-26T00:31:18.114Z,3.13
2023-03-26T00:33:44.828Z,2.58
2023-03-26T00:36:15.274Z,3.28
2023-03-26T00:38:43.195Z,3.33
2023-03-26T00:41:25.009Z,3.38
2023-03-26T00:43:57.494Z,3.63
2023-03-26T00:46:26.238Z,3.10
2023-03-26T00:48:53.652Z,3.30
2023-03-26T00:51:21.647Z,3.53
2023-03-26T00:53:49.993Z,3.15
2023-03-26T00:56:17.705Z,3.35
2023-03-26T00:58:46.060Z,3.30
2023-03-26T01:01:16.366Z,2.90
2023-03-26T01:03:53.628Z,3.20
2023-03-26T01:06:35.914Z,3.33
2023-03-26T01:09:18.753Z,2.80
2023-03-26T01:11:48.748Z,2.58
2023-03-26T01:14:19.187Z,2.83
2023-03-26T01:16:52.151Z,2.53
2023-03-26T01:19:31.646Z,2.38
2023-03-26T01:21:59.065Z,2.50
2023-03-26T01:24:26.256Z,2.45
2023-03-26T01:27:43.365Z,2.33
2023-03-26T01:30:17.151Z,2.83
2023-03-26T01:32:51.096Z,2.35
2023-03-26T01:35:30.772Z,2.50
2023-03-26T01:38:23.045Z,2.40
2023-03-26T01:41:19.636Z,2.15
2023-03-26T01:43:54.197Z,2.38
2023-03-26T01:46:23.818Z,2.10
2023-03-26T01:48:51.893Z,2.60
2023-03-26T01:51:44.967Z,2.30
2023-03-26T01:54:17.149Z,2.00
2023-03-26T01:57:05.952Z,1.90
2023-03-26T01:59:47.664Z,1.83
2023-03-26T02:02:26.817Z,1.65
2023-03-26T02:05:02.723Z,1.80
2023-03-26T02:07:51.047Z,1.50
2023-03-26T02:10:25.669Z,2.20
2023-03-26T02:12:53.164Z,1.70
2023-03-26T02:15:20.948Z,2.25
2023-03-26T02:17:49.250Z,2.13
2023-03-26T02:20:18.855Z,2.05
2023-03-26T02:22:47.256Z,2.08
2023-03-26T02:25:20.465Z,2.45
2023-03-26T02:27:50.332Z,3.05
2023-03-26T02:30:21.648Z,2.35
2023-03-26T02:32:52.336Z,2.42
2023-03-26T02:35:21.917Z,2.00
2023-03-26T02:37:52.668Z,2.70
2023-03-26T02:40:22.400Z,2.50
2023-03-26T02:42:50.544Z,2.90
2023-03-26T02:45:17.431Z,2.92
2023-03-26T02:48:20.415Z,2.55
2023-03-26T02:50:54.658Z,2.72
2023-03-26T02:53:41.278Z,2.97
2023-03-26T02:56:37.299Z,2.75
2023-03-26T02:59:17.841Z,2.60
2023-03-26T03:01:48.029Z,2.90
2023-03-26T03:04:17.962Z,2.40
2023-03-26T03:06:45.497Z,1.83
2023-03-26T03:09:12.955Z,2.25
2023-03-26T03:12:08.866Z,1.40
2023-03-26T03:14:35.780Z,1.60
2023-03-26T03:17:02.469Z,1.60
2023-03-26T03:19:30.946Z,1.45
2023-03-26T03:21:57.869Z,1.65
2023-03-26T03:24:24.568Z,1.40
2023-03-26T03:26:55.015Z,1.60
2023-03-26T03:29:33.216Z,1.80
2023-03-26T03:32:22.473Z,1.60
2023-03-26T03:34:51.502Z,1.80
2023-03-26T03:37:19.442Z,2.20
2023-03-26T03:39:54.213Z,1.83
2023-03-26T03:42:22.919Z,1.92
2023-03-26T03:44:54.623Z,2.20
2023-03-26T03:47:39.979Z,1.80
2023-03-26T03:50:07.860Z,2.13
2023-03-26T03:52:36.025Z,2.00
2023-03-26T03:55:02.967Z,1.90
2023-03-26T03:57:43.194Z,1.92
2023-03-26T04:00:15.552Z,2.25
2023-03-26T04:02:43.081Z,1.75
2023-03-26T04:05:11.714Z,2.40
2023-03-26T04:07:45.224Z,2.10
2023-03-26T04:10:27.018Z,2.25
2023-03-26T04:13:29.361Z,2.28
2023-03-26T04:16:10.398Z,2.08
2023-03-26T04:18:38.238Z,2.30
2023-03-26T04:21:12.711Z,2.20
2023-03-26T04:23:39.588Z,2.00
2023-03-26T04:26:20.185Z,2.28
2023-03-26T04:29:18.198Z,2.30
2023-03-26T04:31:47.193Z,2.70
2023-03-26T04:34:26.108Z,2.40
2023-03-26T04:37:02.924Z,2.50
2023-03-26T04:39:34.111Z,2.38
2023-03-26T04:42:37.771Z,2.50
2023-03-26T04:45:38.482Z,2.70
2023-03-26T04:48:07.315Z,2.72
2023-03-26T04:50:34.500Z,2.13
2023-03-26T04:53:02.422Z,2.55
2023-03-26T04:56:26.415Z,2.63
2023-03-26T04:59:26.275Z,2.55
2023-03-26T05:01:55.286Z,2.30
2023-03-26T05:04:29.467Z,2.88
2023-03-26T05:06:58.442Z,1.98
2023-03-26T05:09:38.286Z,1.88
2023-03-26T05:12:13.519Z,2.03
2023-03-26T05:15:03.582Z,1.95
2023-03-26T05:17:55.452Z,2.10
2023-03-26T05:20:36.917Z,1.80
2023-03-26T05:23:07.423Z,2.05
2023-03-26T05:25:41.248Z,2.00
2023-03-26T05:28:15.486Z,1.80
2023-03-26T05:30:53.831Z,1.80
2023-03-26T05:33:22.779Z,1.65
2023-03-26T05:36:13.313Z,2.00
2023-03-26T05:38:47.331Z,1.70
2023-03-26T05:41:18.366Z,1.73
2023-03-26T05:43:47.858Z,1.90
2023-03-26T05:46:27.259Z,2.00
2023-03-26T05:48:54.087Z,2.00
2023-03-26T05:51:23.458Z,1.77
2023-03-26T05:54:00.316Z,1.90
2023-03-26T05:56:32.759Z,2.00
2023-03-26T05:59:25.658Z,2.30
2023-03-26T06:02:12.531Z,2.10
2023-03-26T06:04:40.856Z,2.00
2023-03-26T06:07:27.115Z,1.98
2023-03-26T06:10:14.600Z,2.17
2023-03-26T06:12:45.764Z,2.20
2023-03-26T06:15:12.912Z,1.90
2023-03-26T06:20:47.980Z,2.10
2023-03-26T06:23:28.198Z,2.40
2023-03-26T06:26:15.515Z,2.40
2023-03-26T06:29:14.776Z,2.33
2023-03-26T06:31:58.124Z,2.53
2023-03-26T06:34:35.867Z,2.45
2023-03-26T06:37:02.546Z,2.42
2023-03-26T06:39:30.219Z,2.25
2023-03-26T06:42:17.413Z,2.45
2023-03-26T06:44:57.353Z,2.83
2023-03-26T06:47:47.456Z,2.42
2023-03-26T06:50:43.857Z,2.88
2023-03-26T06:53:26.648Z,2.40
2023-03-26T06:56:08.883Z,2.42
2023-03-26T06:59:14.104Z,2.35
2023-03-26T07:01:59.390Z,3.00
2023-03-26T07:04:44.466Z,3.00
2023-03-26T07:07:29.414Z,2.80
2023-03-26T07:10:15.102Z,2.67
2023-03-26T07:13:11.084Z,2.70
2023-03-26T07:15:56.446Z,2.60
2023-03-26T07:18:23.106Z,2.45
2023-03-26T07:20:52.489Z,2.15
2023-03-26T07:23:21.352Z,2.60
2023-03-26T07:25:57.240Z,2.65
2023-03-26T07:29:04.436Z,2.72
2023-03-26T07:32:18.876Z,2.97
2023-03-26T07:35:23.413Z,2.60
2023-03-26T07:38:41.254Z,2.83
2023-03-26T07:41:51.083Z,3.85
2023-03-26T07:45:03.239Z,3.00
2023-03-26T07:47:53.881Z,3.08
2023-03-26T07:50:31.561Z,3.13
2023-03-26T07:53:21.624Z,3.47
2023-03-26T07:56:15.986Z,3.50
2023-03-26T07:59:19.368Z,3.67
2023-03-26T08:02:34.464Z,3.33
2023-03-26T08:05:57.917Z,3.63
2023-03-26T08:09:06.769Z,3.20
2023-03-26T08:11:54.228Z,3.38
2023-03-26T08:14:36.420Z,3.75
2023-03-26T08:17:14.161Z,3.35
2023-03-26T08:19:49.106Z,3.35
2023-03-26T08:22:56.644Z,3.70
2023-03-26T08:25:35.125Z,3.35
2023-03-26T08:28:27.851Z,3.38
2023-03-26T08:30:55.221Z,3.92
2023-03-26T08:33:25.907Z,3.38
2023-03-26T08:35:52.947Z,3.42
2023-03-26T08:38:20.953Z,3.50
2023-03-26T08:43:51.566Z,3.45
2023-03-26T08:46:38.868Z,3.35
2023-03-26T08:49:46.208Z,3.30
2023-03-26T08:53:03.229Z,2.90
2023-03-26T08:55:38.240Z,3.25
2023-03-26T08:58:33.213Z,2.60
2023-03-26T09:01:30.966Z,2.90
2023-03-26T09:04:40.335Z,4.72
2023-03-26T09:07:40.858Z,3.35
2023-03-26T09:10:07.455Z,3.58
2023-03-26T09:13:29.413Z,3.35
2023-03-26T09:16:10.033Z,3.17
2023-03-26T09:19:02.396Z,2.78
2023-03-26T09:21:44.040Z,3.38
2023-03-26T09:24:24.341Z,3.00
2023-03-26T09:26:59.839Z,3.17
2023-03-26T09:29:54.316Z,3.42
2023-03-26T09:32:59.774Z,3.13
2023-03-26T09:36:08.737Z,2.67
2023-03-26T09:38:57.548Z,3.00
2023-03-26T09:41:48.205Z,3.72
2023-03-26T09:44:44.222Z,3.45
2023-03-26T09:47:19.819Z,2.83
2023-03-26T09:50:14.214Z,2.85
2023-03-26T09:53:07.566Z,2.90
2023-03-26T09:55:51.100Z,2.67
2023-03-26T09:58:41.340Z,3.60
2023-03-26T10:01:25.211Z,2.97
2023-03-26T10:04:03.891Z,3.10
2023-03-26T10:06:37.177Z,2.92
2023-03-26T10:09:28.428Z,2.83
2023-03-26T10:12:20.604Z,3.25
2023-03-26T10:15:04.375Z,3.22
2023-03-26T10:17:46.717Z,2.70
2023-03-26T10:20:36.225Z,2.83
2023-03-26T10:23:18.561Z,3.00
2023-03-26T10:25:47.845Z,2.80
2023-03-26T10:28:20.288Z,3.33
2023-03-26T10:31:29.093Z,2.50
2023-03-26T10:34:28.728Z,2.90
2023-03-26T10:37:32.486Z,3.10
2023-03-26T10:40:32.458Z,2.92
2023-03-26T10:43:31.382Z,2.92
2023-03-26T10:46:24.921Z,3.45
2023-03-26T10:49:16.205Z,3.17
2023-03-26T10:51:50.452Z,3.33
2023-03-26T10:54:28.902Z,3.22
2023-03-26T10:56:56.670Z,2.90
2023-03-26T10:59:27.070Z,2.60
2023-03-26T11:02:01.337Z,2.85
2023-03-26T11:04:46.373Z,2.45
2023-03-26T11:07:31.694Z,3.53
2023-03-26T11:10:11.879Z,2.90
2023-03-26T11:13:06.322Z,3.22
2023-03-26T11:15:35.897Z,3.10
2023-03-26T11:18:18.922Z,2.92
2023-03-26T11:20:54.770Z,3.33
2023-03-26T11:24:06.049Z,2.95
2023-03-26T11:27:14.902Z,2.83
2023-03-26T11:30:35.682Z,3.50
2023-03-26T11:33:06.826Z,3.05
2023-03-26T11:35:42.714Z,2.90
2023-03-26T11:38:23.386Z,3.30
2023-03-26T11:40:54.339Z,2.60
2023-03-26T11:43:39.859Z,2.30
2023-03-26T11:46:12.213Z,2.90
2023-03-26T11:48:45.059Z,2.30
2023-03-26T11:51:37.658Z,2.88
2023-03-26T11:54:07.843Z,2.70
2023-03-26T11:57:04.389Z,2.75
2023-03-26T11:59:56.511Z,2.65
2023-03-26T12:02:34.043Z,2.88
2023-03-26T12:05:24.968Z,3.15
2023-03-26T12:07:59.854Z,2.75
2023-03-26T12:10:37.713Z,3.10
2023-03-26T12:13:21.215Z,3.00
2023-03-26T12:15:48.215Z,3.17
2023-03-26T12:18:26.393Z,2.90
2023-03-26T12:21:22.678Z,2.90
2023-03-26T12:24:02.529Z,2.80
2023-03-26T12:26:41.690Z,2.30
2023-03-26T12:31:46.890Z,2.45
2023-03-26T12:34:19.397Z,2.63
2023-03-26T12:36:52.330Z,3.15
2023-03-26T12:40:09.973Z,3.15
2023-03-26T12:44:46.779Z,2.83
2023-03-26T12:45:21.748Z,2.58
2023-03-26T12:47:58.926Z,2.83
2023-03-26T12:50:59.261Z,2.65
2023-03-26T12:53:50.536Z,2.90
2023-03-26T12:56:37.005Z,2.50
2023-03-26T12:59:09.419Z,2.78
2023-03-26T13:01:54.633Z,3.08
2023-03-26T13:04:24.240Z,2.97
2023-03-26T13:07:06.535Z,3.00
2023-03-26T13:10:16.106Z,3.00
2023-03-26T13:13:05.080Z,3.03
2023-03-26T13:15:37.010Z,2.88
2023-03-26T13:18:23.261Z,2.58
2023-03-26T13:21:00.570Z,2.90
2023-03-26T13:23:46.045Z,2.35
2023-03-26T13:26:12.621Z,2.95
2023-03-26T13:28:48.813Z,3.20
2023-03-26T13:34:34.047Z,3.15
2023-03-26T13:37:04.456Z,2.55
2023-03-26T13:39:51.671Z,2.35
2023-03-26T13:42:21.827Z,2.42
2023-03-26T13:45:04.532Z,3.00
2023-03-26T13:47:36.773Z,2.97
2023-03-26T13:50:09.853Z,2.78
2023-03-26T13:52:55.987Z,3.30
2023-03-26T13:55:43.491Z,3.58
2023-03-26T13:58:34.636Z,3.85
2023-03-26T14:01:18.246Z,3.55
2023-03-26T14:03:58.048Z,3.00
2023-03-26T14:06:57.574Z,3.40
2023-03-26T14:09:31.808Z,3.65
2023-03-26T14:12:32.109Z,3.40
2023-03-26T14:15:05.852Z,3.28
2023-03-26T14:17:47.452Z,3.22
2023-03-26T14:20:25.549Z,3.40
2023-03-26T14:23:14.697Z,3.30
2023-03-26T14:26:06.751Z,2.72
2023-03-26T14:28:55.117Z,2.72
2023-03-26T14:31:34.230Z,3.38
2023-03-26T14:34:34.309Z,3.75
2023-03-26T14:37:06.087Z,2.80
2023-03-26T14:39:44.171Z,2.95
2023-03-26T14:42:31.952Z,3.60
2023-03-26T14:45:23.413Z,3.55
2023-03-26T14:48:17.667Z,3.50
2023-03-26T14:51:01.400Z,3.70
2023-03-26T14:53:33.446Z,3.40
2023-03-26T14:56:15.678Z,3.00
2023-03-26T14:59:03.508Z,3.15
2023-03-26T15:02:07.410Z,3.50
2023-03-26T15:05:08.313Z,2.80
2023-03-26T15:08:05.765Z,3.08
2023-03-26T15:10:45.354Z,2.75
2023-03-26T15:13:43.085Z,2.75
2023-03-26T15:16:21.030Z,3.10
2023-03-26T15:19:09.417Z,3.58
2023-03-26T15:21:45.231Z,2.70
2023-03-26T15:24:17.907Z,2.80
2023-03-26T15:26:50.117Z,2.92
2023-03-26T15:29:45.798Z,2.47
2023-03-26T15:32:45.773Z,2.88
2023-03-26T15:35:21.371Z,2.35
2023-03-26T15:37:54.264Z,2.75
2023-03-26T15:40:43.000Z,2.38
2023-03-26T15:43:12.949Z,2.58
2023-03-26T15:46:07.395Z,2.45
2023-03-26T15:49:00.117Z,2.45
2023-03-26T15:52:03.834Z,2.88
2023-03-26T15:54:37.065Z,2.90
2023-03-26T15:57:16.654Z,2.75
2023-03-26T16:00:22.571Z,3.08
2023-03-26T16:02:55.353Z,2.63
2023-03-26T16:05:40.057Z,3.15
2023-03-26T16:08:14.762Z,2.28
2023-03-26T16:11:00.333Z,3.25
2023-03-26T16:13:34.855Z,3.17
2023-03-26T16:16:04.279Z,2.85
2023-03-26T16:18:37.729Z,2.90
2023-03-26T16:21:31.466Z,3.22
2023-03-26T16:24:02.166Z,2.78
2023-03-26T16:26:31.721Z,2.70
2023-03-26T16:29:28.002Z,3.00
2023-03-26T16:32:09.808Z,3.30
2023-03-26T16:34:59.711Z,2.83
2023-03-26T16:37:33.645Z,2.65
2023-03-26T16:40:18.683Z,2.55
2023-03-26T16:43:16.359Z,3.15
2023-03-26T16:46:20.384Z,3.42
2023-03-26T16:48:47.048Z,3.85
2023-03-26T16:51:42.237Z,4.05
2023-03-26T16:54:47.886Z,3.13
2023-03-26T16:57:23.753Z,2.42
2023-03-26T17:00:24.575Z,3.25
2023-03-26T17:03:37.664Z,2.80
2023-03-26T17:06:45.708Z,2.40
2023-03-26T17:09:24.706Z,2.70
2023-03-26T17:12:02.763Z,2.70
2023-03-26T17:15:16.404Z,3.00
2023-03-26T17:18:07.021Z,2.67
2023-03-26T17:20:39.452Z,3.60
2023-03-26T17:23:14.613Z,3.67
2023-03-26T17:25:54.345Z,3.42
2023-03-26T17:28:51.577Z,3.00
2023-03-26T17:31:56.933Z,2.60
2023-03-26T17:34:32.620Z,2.53
2023-03-26T17:37:00.922Z,2.70
2023-03-26T17:39:39.703Z,2.50
2023-03-26T17:42:25.632Z,2.38
2023-03-26T17:45:01.227Z,3.10
2023-03-26T17:47:42.240Z,2.95
2023-03-26T17:50:19.693Z,2.63
2023-03-26T17:52:55.212Z,2.20
2023-03-26T17:55:31.316Z,2.33
2023-03-26T18:00:51.052Z,2.10
2023-03-26T18:03:30.844Z,2.50
2023-03-26T18:06:07.232Z,2.63
2023-03-26T18:08:41.488Z,2.83
2023-03-26T18:11:17.003Z,3.17
2023-03-26T18:13:52.548Z,2.88
2023-03-26T18:16:39.084Z,2.70
2023-03-26T18:19:22.025Z,5.03
2023-03-26T18:21:51.945Z,2.22
2023-03-26T18:24:27.607Z,2.30
2023-03-26T18:26:58.498Z,2.05
2023-03-26T18:29:35.272Z,1.67
2023-03-26T18:32:11.447Z,1.90
2023-03-26T18:37:17.661Z,2.08
2023-03-26T18:39:57.617Z,2.10
2023-03-26T18:42:25.335Z,1.50
2023-03-26T18:44:53.934Z,1.88
2023-03-26T18:47:29.424Z,2.22
2023-03-26T18:49:58.127Z,2.30
2023-03-26T18:52:27.914Z,2.20
2023-03-26T18:54:56.698Z,2.10
2023-03-26T18:57:26.114Z,1.50
2023-03-26T18:59:55.866Z,1.63
2023-03-26T19:02:24.787Z,1.38
2023-03-26T19:04:54.324Z,1.80
2023-03-26T19:07:26.492Z,1.50
2023-03-26T19:09:56.377Z,1.45
2023-03-26T19:12:28.876Z,1.52
2023-03-26T19:15:02.317Z,1.50
2023-03-26T19:17:34.443Z,1.88
2023-03-26T19:20:01.669Z,1.50
2023-03-26T19:22:30.427Z,1.30
2023-03-26T19:25:01.281Z,1.27
2023-03-26T19:27:28.330Z,1.20
2023-03-26T19:29:55.190Z,1.38
2023-03-26T19:32:32.387Z,1.67
2023-03-26T19:35:01.199Z,1.70
2023-03-26T19:37:30.714Z,1.15
2023-03-26T19:40:07.156Z,1.70
2023-03-26T19:42:42.884Z,1.45
2023-03-26T19:45:17.765Z,1.40
2023-03-26T19:47:50.409Z,1.27
2023-03-26T19:50:29.345Z,1.40
2023-03-26T19:53:17.013Z,1.23
2023-03-26T19:55:58.969Z,1.10
2023-03-26T19:58:26.498Z,1.00
2023-03-26T20:00:55.649Z,1.20
2023-03-26T20:03:29.227Z,1.10
2023-03-26T20:05:56.390Z,1.10
2023-03-26T20:08:27.069Z,1.33
2023-03-26T20:10:56.554Z,1.02
2023-03-26T20:13:23.373Z,0.95
2023-03-26T20:16:07.515Z,1.30
2023-03-26T20:18:37.628Z,1.27
2023-03-26T20:21:12.280Z,1.20
2023-03-26T20:23:40.732Z,1.15
2023-03-26T20:26:12.082Z,1.00
2023-03-26T20:28:47.492Z,1.10
2023-03-26T20:31:26.235Z,1.20
2023-03-26T20:33:54.207Z,1.33
2023-03-26T20:36:34.008Z,1.20
2023-03-26T20:39:05.974Z,1.10
2023-03-26T20:45:29.825Z,1.20
2023-03-26T20:48:00.451Z,1.30
2023-03-26T20:50:50.781Z,1.40
2023-03-26T20:53:33.328Z,1.30
2023-03-26T20:56:33.229Z,1.33
2023-03-26T20:59:37.819Z,1.35
2023-03-26T21:02:15.180Z,1.17
2023-03-26T21:08:04.556Z,1.63
2023-03-26T21:18:23.403Z,1.50
2023-03-26T21:28:42.435Z,1.20
2023-03-26T21:34:39.666Z,1.63
2023-03-26T21:37:31.245Z,1.40
2023-03-26T21:40:19.033Z,1.40
2023-03-26T21:43:22.200Z,1.58
2023-03-26T21:46:07.752Z,1.60
2023-03-26T21:49:04.348Z,1.40
2023-03-26T21:51:41.262Z,1.50
2023-03-26T21:54:24.516Z,1.52
2023-03-26T21:57:10.622Z,1.50
2023-03-26T22:00:12.144Z,1.38
2023-03-26T22:02:42.897Z,1.55
2023-03-26T22:05:23.161Z,1.65
2023-03-26T22:08:14.505Z,1.85
2023-03-26T22:10:43.943Z,1.75
2023-03-26T22:13:18.961Z,2.05
2023-03-26T22:18:34.674Z,1.77
2023-03-26T22:21:04.179Z,1.80
2023-03-26T22:23:45.985Z,1.77
2023-03-26T22:26:15.640Z,1.88
2023-03-26T22:28:49.342Z,1.80
2023-03-26T22:31:53.926Z,2.08
2023-03-26T22:34:36.770Z,1.50
2023-03-26T22:41:58.606Z,1.80
2023-03-26T22:44:23.540Z,1.67
2023-03-26T22:46:54.426Z,2.10
2023-03-26T22:49:21.374Z,1.92
2023-03-26T22:51:48.241Z,2.40
2023-03-26T22:54:14.964Z,1.95
2023-03-26T22:56:41.712Z,1.58
2023-03-26T22:59:08.688Z,1.90
2023-03-26T23:01:36.142Z,1.50
2023-03-26T23:04:03.094Z,1.95
2023-03-26T23:06:29.925Z,1.45
2023-03-26T23:08:57.067Z,1.90
2023-03-26T23:11:23.980Z,1.60
2023-03-26T23:13:51.272Z,1.75
2023-03-26T23:16:19.179Z,1.80
2023-03-26T23:18:46.112Z,1.70
2023-03-26T23:21:15.213Z,1.70
2023-03-26T23:23:42.232Z,1.73
2023-03-26T23:26:08.913Z,1.92
2023-03-26T23:28:35.950Z,1.75
2023-03-26T23:31:05.720Z,1.63
2023-03-26T23:33:35.400Z,1.85
2023-03-26T23:36:08.736Z,1.70
2023-03-26T23:38:43.591Z,1.58
2023-03-26T23:41:14.840Z,1.50
2023-03-26T23:43:54.807Z,1.88
2023-03-26T23:46:33.107Z,1.75
2023-03-26T23:49:02.333Z,1.50
2023-03-26T23:51:32.733Z,1.52
2023-03-26T23:54:00.530Z,1.60
2023-03-26T23:56:30.301Z,1.50
2023-03-26T23:58:57.375Z,1.77
